Time;durP1;ratioP1;P1;durP2;ratioP2;P2;SDS_P1;SDS_P2;PMS_P1;PMS_P2;Temp;Humidity;BMP_temperature;BMP_pressure;BME280_temperature;BME280_humidity;BME280_pressure;Samples;Min_cycle;Max_cycle;Signal;HPM_P1;HPM_P2
2021/09/04 00:02:23;;;;;;;27.40;17.30;;;;;;;14.79;100.00;100318.22;4995664;28;20454;-68
2021/09/04 00:04:50;;;;;;;21.60;17.08;;;;;;;14.80;100.00;100319.94;4995738;28;20359;-67
2021/09/04 00:07:17;;;;;;;24.02;17.27;;;;;;;14.76;100.00;100315.78;4995559;28;20048;-68
2021/09/04 00:09:44;;;;;;;21.00;17.65;;;;;;;14.72;100.00;100309.75;5006629;28;20042;-67
2021/09/04 00:12:11;;;;;;;23.55;16.80;;;;;;;14.74;100.00;100315.03;5014072;28;20121;-68
2021/09/04 00:14:39;;;;;;;23.63;17.75;;;;;;;14.76;100.00;100310.41;5014167;28;20311;-68
2021/09/04 00:17:07;;;;;;;29.17;18.95;;;;;;;14.70;100.00;100319.75;5015295;28;20069;-68
2021/09/04 00:19:33;;;;;;;27.98;19.70;;;;;;;14.73;100.00;100306.09;5014763;28;20054;-67
2021/09/04 00:22:00;;;;;;;27.73;17.77;;;;;;;14.71;100.00;100312.56;5014374;28;20050;-68
2021/09/04 00:24:27;;;;;;;22.02;17.90;;;;;;;14.67;100.00;100310.09;5013942;28;20100;-68
2021/09/04 00:26:55;;;;;;;24.52;18.45;;;;;;;14.65;100.00;100308.47;5015294;28;20080;-68
2021/09/04 00:29:22;;;;;;;33.90;17.85;;;;;;;14.67;100.00;100306.56;5014254;28;20334;-67
2021/09/04 00:31:49;;;;;;;27.83;18.73;;;;;;;14.66;100.00;100304.84;5015071;28;20053;-68
2021/09/04 00:34:16;;;;;;;22.85;18.48;;;;;;;14.57;100.00;100306.41;5015101;28;20350;-68
2021/09/04 00:36:42;;;;;;;23.88;17.92;;;;;;;14.57;100.00;100294.78;4997547;28;20076;-68
2021/09/04 00:39:09;;;;;;;31.15;19.90;;;;;;;14.53;100.00;100303.09;5015041;28;20049;-68
2021/09/04 00:41:36;;;;;;;28.95;17.95;;;;;;;14.49;100.00;100301.59;5014868;28;20050;-67
2021/09/04 00:44:05;;;;;;;23.80;18.98;;;;;;;14.43;100.00;100298.53;5014793;28;20488;-68
2021/09/04 00:46:32;;;;;;;27.88;19.40;;;;;;;14.43;100.00;100296.69;5013794;28;20058;-68
2021/09/04 00:48:59;;;;;;;27.90;18.27;;;;;;;14.42;100.00;100296.81;5014808;28;20111;-67
2021/09/04 00:51:25;;;;;;;25.52;17.95;;;;;;;14.42;100.00;100292.28;5014720;28;20054;-67
2021/09/04 00:53:52;;;;;;;24.90;18.30;;;;;;;14.37;100.00;100292.63;5014631;28;20457;-67
2021/09/04 00:56:19;;;;;;;27.02;18.23;;;;;;;14.35;100.00;100291.91;5014800;28;20045;-69
2021/09/04 00:58:48;;;;;;;24.33;18.83;;;;;;;14.32;100.00;100288.59;5013872;28;20127;-69
2021/09/04 01:01:16;;;;;;;27.77;18.45;;;;;;;14.32;100.00;100293.97;5015084;28;20397;-69
2021/09/04 01:03:44;;;;;;;23.98;18.20;;;;;;;14.30;100.00;100282.47;5014575;28;20107;-69
2021/09/04 01:06:15;;;;;;;29.52;20.00;;;;;;;14.30;100.00;100290.53;5013585;28;20093;-69
2021/09/04 01:08:43;;;;;;;25.35;20.30;;;;;;;14.28;100.00;100290.66;5010210;28;20100;-69
2021/09/04 01:11:11;;;;;;;29.48;20.63;;;;;;;14.26;100.00;100292.56;4995435;28;20412;-69
2021/09/04 01:13:39;;;;;;;33.78;20.55;;;;;;;14.20;100.00;100290.34;5010225;28;20372;-69
2021/09/04 01:16:06;;;;;;;26.20;20.52;;;;;;;14.12;100.00;100288.25;4993834;28;20061;-69
2021/09/04 01:18:33;;;;;;;27.30;19.65;;;;;;;14.19;100.00;100297.56;4993499;28;20050;-69
2021/09/04 01:21:02;;;;;;;25.77;20.17;;;;;;;14.16;100.00;100291.56;4995029;28;20108;-69
2021/09/04 01:23:29;;;;;;;30.35;19.58;;;;;;;14.13;100.00;100288.13;5014519;28;20333;-69
2021/09/04 01:25:56;;;;;;;27.33;19.48;;;;;;;14.08;100.00;100282.25;5014767;28;20050;-69
2021/09/04 01:28:23;;;;;;;27.30;20.88;;;;;;;14.08;100.00;100289.44;5013261;28;20050;-68
2021/09/04 01:30:50;;;;;;;27.40;20.23;;;;;;;14.05;100.00;100287.84;5014491;28;20092;-69
2021/09/04 01:33:17;;;;;;;30.45;20.88;;;;;;;14.02;100.00;100285.41;5017377;28;20042;-69
2021/09/04 01:35:44;;;;;;;34.63;21.23;;;;;;;13.99;100.00;100291.84;5018091;28;20045;-69
2021/09/04 01:38:11;;;;;;;34.05;23.08;;;;;;;13.95;100.00;100287.66;5017972;28;20042;-69
2021/09/04 01:40:37;;;;;;;32.72;23.58;;;;;;;13.92;100.00;100281.66;5017934;28;20061;-68
2021/09/04 01:43:04;;;;;;;33.70;23.95;;;;;;;13.87;100.00;100263.22;5016614;28;20103;-68
2021/09/04 01:45:31;;;;;;;36.38;25.50;;;;;;;13.85;100.00;100273.22;5000284;28;20399;-68
2021/09/04 01:47:58;;;;;;;33.33;25.08;;;;;;;13.84;100.00;100263.47;5017727;28;20124;-68
2021/09/04 01:50:25;;;;;;;40.83;26.52;;;;;;;13.91;100.00;100263.84;5016598;28;20350;-68
2021/09/04 01:52:51;;;;;;;47.53;28.80;;;;;;;13.91;100.00;100271.91;5017736;28;20050;-67
2021/09/04 01:55:20;;;;;;;40.03;28.45;;;;;;;13.94;100.00;100260.97;5016890;28;20052;-67
2021/09/04 01:57:47;;;;;;;40.38;28.73;;;;;;;13.90;100.00;100268.34;5016529;28;20054;-66
2021/09/04 02:00:15;;;;;;;43.35;29.17;;;;;;;13.84;100.00;100258.09;5017395;28;20064;-69
2021/09/04 02:02:43;;;;;;;45.22;28.52;;;;;;;13.91;100.00;100270.09;5017774;28;20404;-66
2021/09/04 02:05:11;;;;;;;37.92;27.77;;;;;;;13.84;100.00;100271.50;5017569;28;20076;-69
2021/09/04 02:07:38;;;;;;;37.13;28.65;;;;;;;13.83;100.00;100272.44;5017585;28;20390;-67
2021/09/04 02:10:07;;;;;;;40.80;29.13;;;;;;;13.82;100.00;100274.28;5017230;28;20042;-69
2021/09/04 02:12:34;;;;;;;35.45;27.13;;;;;;;13.76;100.00;100273.88;5032600;28;20050;-66
2021/09/04 02:15:01;;;;;;;38.10;27.40;;;;;;;13.71;100.00;100276.88;5017451;28;20327;-67
2021/09/04 02:17:29;;;;;;;40.28;28.65;;;;;;;13.71;100.00;100279.56;5017257;28;20121;-67
2021/09/04 02:19:55;;;;;;;38.35;27.85;;;;;;;13.68;100.00;100272.59;5016858;28;20061;-67
2021/09/04 02:22:23;;;;;;;44.58;30.48;;;;;;;13.69;100.00;100278.84;5017324;28;20057;-67
2021/09/04 02:24:50;;;;;;;45.15;29.95;;;;;;;13.62;100.00;100259.63;5015888;28;20050;-66
2021/09/04 02:27:17;;;;;;;43.67;31.50;;;;;;;13.68;100.00;100277.13;5016150;28;20046;-67
2021/09/04 02:29:45;;;;;;;44.05;31.42;;;;;;;13.77;100.00;100267.56;5015728;28;20050;-67
2021/09/04 02:32:12;;;;;;;50.60;32.78;;;;;;;13.67;100.00;100265.53;5017003;28;20069;-67
2021/09/04 02:34:39;;;;;;;44.72;31.45;;;;;;;13.68;100.00;100259.19;5016933;28;20562;-67
2021/09/04 02:37:07;;;;;;;45.35;31.60;;;;;;;13.69;100.00;100263.59;5015673;28;20077;-67
2021/09/04 02:39:34;;;;;;;46.72;31.83;;;;;;;13.64;100.00;100249.66;4999579;28;20365;-67
2021/09/04 02:42:02;;;;;;;47.33;32.20;;;;;;;13.73;100.00;100255.31;5016791;28;20054;-67
2021/09/04 02:44:29;;;;;;;46.30;33.08;;;;;;;13.77;100.00;100246.94;4998781;28;20045;-67
2021/09/04 02:46:56;;;;;;;44.65;31.95;;;;;;;13.71;100.00;100245.56;5016767;28;20050;-67
2021/09/04 02:49:22;;;;;;;41.38;30.90;;;;;;;13.75;100.00;100253.38;4999212;28;20100;-67
2021/09/04 02:51:49;;;;;;;45.45;29.70;;;;;;;13.62;100.00;100218.56;5016687;28;20042;-68
2021/09/04 02:54:16;;;;;;;39.83;28.95;;;;;;;13.78;100.00;100245.13;5016616;28;20046;-68
2021/09/04 02:56:45;;;;;;;43.95;28.42;;;;;;;13.73;100.00;100247.28;5015393;28;20060;-68
2021/09/04 02:59:12;;;;;;;46.75;29.70;;;;;;;13.71;100.00;100250.94;5016537;28;20069;-68
2021/09/04 03:01:39;;;;;;;41.17;28.95;;;;;;;13.66;100.00;100247.72;5015466;28;20049;-67
2021/09/04 03:04:07;;;;;;;40.83;28.45;;;;;;;13.70;100.00;100248.34;5016168;28;20058;-67
2021/09/04 03:06:35;;;;;;;38.20;27.05;;;;;;;13.65;100.00;100245.16;5016413;28;20402;-67
2021/09/04 03:09:02;;;;;;;40.42;27.52;;;;;;;13.65;100.00;100262.09;5011687;28;20057;-67
2021/09/04 03:11:30;;;;;;;37.03;28.58;;;;;;;13.60;100.00;100256.22;5011837;28;20129;-67
2021/09/04 03:13:57;;;;;;;46.90;28.52;;;;;;;13.55;100.00;100245.81;4979478;28;20057;-67
2021/09/04 03:16:24;;;;;;;39.70;27.77;;;;;;;13.62;100.00;100253.44;5011618;28;20100;-68
2021/09/04 03:18:52;;;;;;;37.92;28.42;;;;;;;13.51;100.00;100236.28;4996545;28;20411;-68
2021/09/04 03:21:20;;;;;;;38.25;27.30;;;;;;;13.51;100.00;100232.75;4997831;28;20057;-67
2021/09/04 03:23:51;;;;;;;39.88;27.25;;;;;;;13.51;100.00;100249.69;5015953;28;20446;-67
2021/09/04 03:26:18;;;;;;;40.50;26.63;;;;;;;13.51;100.00;100254.22;5015764;28;20121;-68
2021/09/04 03:28:46;;;;;;;41.28;26.67;;;;;;;13.49;100.00;100250.75;5015860;28;20353;-69
2021/09/04 03:31:14;;;;;;;38.03;26.42;;;;;;;13.42;100.00;100248.47;5016048;28;20072;-68
2021/09/04 03:33:41;;;;;;;35.13;25.35;;;;;;;13.40;100.00;100247.75;5015841;28;20045;-69
2021/09/04 03:36:08;;;;;;;37.22;24.92;;;;;;;13.33;100.00;100245.63;5015701;28;20092;-68
2021/09/04 03:38:35;;;;;;;38.53;27.02;;;;;;;13.32;100.00;100244.75;5014653;28;20069;-67
2021/09/04 03:41:02;;;;;;;43.60;28.42;;;;;;;13.27;100.00;100244.22;5015648;28;20041;-67
2021/09/04 03:43:30;;;;;;;40.35;27.48;;;;;;;13.24;100.00;100249.81;5014417;28;20480;-67
2021/09/04 03:45:57;;;;;;;43.83;27.52;;;;;;;13.25;100.00;100241.66;5015736;28;20076;-67
2021/09/04 03:48:25;;;;;;;36.65;26.15;;;;;;;13.21;100.00;100240.16;5015585;28;20044;-67
2021/09/04 03:50:51;;;;;;;41.00;26.98;;;;;;;13.26;100.00;100250.56;5014857;28;20049;-66
2021/09/04 03:53:19;;;;;;;41.60;26.70;;;;;;;13.24;100.00;100255.19;4998264;28;20437;-67
2021/09/04 03:55:45;;;;;;;39.63;27.75;;;;;;;13.20;100.00;100262.59;5014667;28;20122;-67
2021/09/04 03:58:13;;;;;;;35.97;25.52;;;;;;;13.15;100.00;100254.88;4983076;28;20057;-66
2021/09/04 04:00:40;;;;;;;35.95;24.83;;;;;;;13.10;100.00;100251.66;5015564;28;20050;-66
2021/09/04 04:03:07;;;;;;;35.80;25.33;;;;;;;13.10;100.00;100259.69;5014460;28;20077;-69
2021/09/04 04:05:34;;;;;;;35.67;24.85;;;;;;;13.08;100.00;100258.09;5015375;28;20438;-66
2021/09/04 04:08:00;;;;;;;41.20;24.08;;;;;;;13.00;100.00;100234.50;5015164;28;20501;-66
2021/09/04 04:10:29;;;;;;;34.55;23.63;;;;;;;13.03;100.00;100258.41;5015104;28;20075;-67
2021/09/04 04:12:56;;;;;;;36.08;24.52;;;;;;;12.99;100.00;100257.78;5015220;28;20046;-67
2021/09/04 04:15:23;;;;;;;36.60;24.20;;;;;;;12.94;100.00;100261.72;5013876;28;20042;-66
2021/09/04 04:17:50;;;;;;;35.83;24.45;;;;;;;12.90;100.00;100259.25;5013937;28;20121;-66
2021/09/04 04:20:17;;;;;;;34.08;24.33;;;;;;;12.87;100.00;100262.13;5013965;28;20492;-67
2021/09/04 04:22:45;;;;;;;33.40;23.38;;;;;;;12.83;100.00;100255.28;5019568;28;20406;-67
2021/09/04 04:25:12;;;;;;;37.42;24.48;;;;;;;12.85;100.00;100264.06;5015006;28;20346;-68
2021/09/04 04:27:39;;;;;;;33.45;23.17;;;;;;;12.84;100.00;100265.03;5014927;28;20104;-68
2021/09/04 04:30:07;;;;;;;33.05;24.50;;;;;;;12.83;100.00;100265.13;5014886;28;20049;-69
2021/09/04 04:32:33;;;;;;;39.85;25.88;;;;;;;12.82;100.00;100271.47;5014927;28;20049;-69
2021/09/04 04:35:01;;;;;;;36.75;24.50;;;;;;;12.82;100.00;100269.66;5014938;28;20054;-70
2021/09/04 04:37:29;;;;;;;36.22;24.83;;;;;;;12.77;100.00;100264.59;5015174;28;20050;-69
2021/09/04 04:39:56;;;;;;;42.72;28.13;;;;;;;12.81;100.00;100267.91;5015164;28;20058;-69
2021/09/04 04:42:27;;;;;;;36.83;24.20;;;;;;;12.76;100.00;100265.56;5015355;28;20076;-68
2021/09/04 04:44:54;;;;;;;36.50;25.00;;;;;;;12.74;100.00;100263.94;5014816;28;20034;-68
2021/09/04 04:47:24;;;;;;;38.78;25.38;;;;;;;12.68;100.00;100269.75;5015137;28;20046;-69
2021/09/04 04:49:51;;;;;;;41.55;26.05;;;;;;;12.72;100.00;100263.19;5014954;28;20073;-68
2021/09/04 04:52:19;;;;;;;40.28;27.70;;;;;;;12.73;100.00;100270.25;5015008;28;20053;-66
2021/09/04 04:54:48;;;;;;;45.45;25.95;;;;;;;12.68;100.00;100272.41;5014836;28;20530;-67
2021/09/04 04:57:15;;;;;;;38.97;26.52;;;;;;;12.62;100.00;100271.88;5014799;28;20054;-67
2021/09/04 04:59:42;;;;;;;40.63;27.45;;;;;;;12.60;100.00;100270.25;5014667;28;20068;-68
2021/09/04 05:02:09;;;;;;;39.50;27.02;;;;;;;12.60;100.00;100276.44;5014307;28;20045;-67
2021/09/04 05:04:36;;;;;;;47.03;28.42;;;;;;;12.60;100.00;100276.44;5014379;28;20053;-67
2021/09/04 05:07:04;;;;;;;44.17;28.90;;;;;;;12.62;100.00;100279.91;5015696;28;20073;-68
2021/09/04 05:09:32;;;;;;;48.63;31.00;;;;;;;12.62;100.00;100282.59;5017577;28;20062;-67
2021/09/04 05:11:59;;;;;;;37.58;27.70;;;;;;;12.61;100.00;100283.53;5018401;28;20064;-67
2021/09/04 05:14:27;;;;;;;41.83;27.23;;;;;;;12.62;100.00;100289.75;5017604;28;20062;-67
2021/09/04 05:16:54;;;;;;;44.97;28.67;;;;;;;12.61;100.00;100294.25;5018348;28;20045;-68
2021/09/04 05:19:23;;;;;;;39.67;26.80;;;;;;;12.61;100.00;100290.72;5033342;28;20112;-69
2021/09/04 05:21:51;;;;;;;42.75;28.55;;;;;;;12.64;100.00;100287.81;5017273;28;20057;-68
2021/09/04 05:24:18;;;;;;;43.35;28.05;;;;;;;12.67;100.00;100284.94;5017067;28;20057;-68
2021/09/04 05:26:45;;;;;;;44.65;27.38;;;;;;;12.70;100.00;100290.06;5017125;28;20133;-67
2021/09/04 05:29:12;;;;;;;38.83;27.17;;;;;;;12.66;100.00;100285.91;5017009;28;20045;-68
2021/09/04 05:31:39;;;;;;;39.88;26.95;;;;;;;12.65;100.00;100291.34;5016753;28;20064;-67
2021/09/04 05:34:06;;;;;;;40.10;26.80;;;;;;;12.65;100.00;100299.38;5016890;28;20042;-66
2021/09/04 05:36:32;;;;;;;36.33;26.55;;;;;;;12.66;100.00;100296.63;5017800;28;20041;-68
2021/09/04 05:38:59;;;;;;;41.25;27.02;;;;;;;12.72;100.00;100300.69;5017916;28;20053;-68
2021/09/04 05:41:26;;;;;;;43.50;28.08;;;;;;;12.72;100.00;100296.22;5018131;28;20382;-67
2021/09/04 05:43:53;;;;;;;41.85;27.58;;;;;;;12.74;100.00;100296.06;5017694;28;20049;-67
2021/09/04 05:46:19;;;;;;;45.97;27.63;;;;;;;12.75;100.00;100289.78;5016587;28;20044;-67
2021/09/04 05:48:46;;;;;;;43.63;28.67;;;;;;;12.81;100.00;100288.50;5017644;28;20108;-68
2021/09/04 05:51:13;;;;;;;54.85;35.38;;;;;;;12.86;100.00;100289.88;5017557;28;20041;-67
2021/09/04 05:53:40;;;;;;;52.40;33.70;;;;;;;12.93;100.00;100287.66;5017531;28;20401;-68
2021/09/04 05:56:07;;;;;;;61.05;38.58;;;;;;;13.02;100.00;100291.53;5017642;28;20038;-69
2021/09/04 05:58:34;;;;;;;63.85;38.17;;;;;;;13.01;100.00;100284.44;5017485;28;20100;-68
2021/09/04 06:01:01;;;;;;;64.22;42.08;;;;;;;13.02;100.00;100281.66;5017378;28;20459;-69
2021/09/04 06:03:28;;;;;;;64.15;40.85;;;;;;;13.16;100.00;100294.09;5017420;28;20076;-69
2021/09/04 06:05:59;;;;;;;;;;;;;;;13.22;100.00;100290.13;5016659;28;20307;-67
2021/09/04 06:08:26;;;;;;;71.03;44.30;;;;;;;13.26;100.00;100285.41;5015617;28;20277;-67
2021/09/04 06:10:53;;;;;;;80.30;53.15;;;;;;;13.28;100.00;100287.00;5017081;28;20366;-68
2021/09/04 06:13:20;;;;;;;89.35;58.72;;;;;;;13.34;100.00;100284.88;5016848;28;20045;-67
2021/09/04 06:15:46;;;;;;;99.03;66.95;;;;;;;13.41;100.00;100288.84;5015737;28;20045;-67
2021/09/04 06:18:14;;;;;;;100.10;66.47;;;;;;;13.52;100.00;100298.81;5015008;28;20057;-68
2021/09/04 06:20:40;;;;;;;80.13;52.78;;;;;;;13.63;100.00;100293.56;5016734;28;20080;-68
2021/09/04 06:23:07;;;;;;;66.47;41.67;;;;;;;13.67;100.00;100295.03;4999672;28;20054;-71
2021/09/04 06:25:34;;;;;;;69.03;39.42;;;;;;;13.71;100.00;100303.72;4997429;28;20046;-72
2021/09/04 06:28:01;;;;;;;62.60;35.78;;;;;;;13.74;100.00;100302.63;4997309;28;20054;-71
2021/09/04 06:30:28;;;;;;;60.70;34.85;;;;;;;13.81;100.00;100309.28;4997430;28;20042;-71
2021/09/04 06:32:55;;;;;;;52.30;31.95;;;;;;;13.93;100.00;100308.38;5028969;28;20141;-70
2021/09/04 06:35:22;;;;;;;52.92;31.08;;;;;;;13.95;100.00;100311.81;4997540;28;20439;-72
2021/09/04 06:37:48;;;;;;;54.60;31.27;;;;;;;13.96;100.00;100304.63;5013851;28;20050;-73
2021/09/04 06:40:15;;;;;;;53.42;30.08;;;;;;;14.03;100.00;100310.38;5015846;28;20423;-74
2021/09/04 06:42:42;;;;;;;58.20;32.38;;;;;;;14.09;100.00;100313.50;5018460;28;20076;-71
2021/09/04 06:45:09;;;;;;;57.97;34.10;;;;;;;14.09;100.00;100318.84;5000603;28;20044;-71
2021/09/04 06:47:36;;;;;;;61.03;33.53;;;;;;;14.18;100.00;100321.81;5006086;28;20430;-72
2021/09/04 06:50:04;;;;;;;57.33;32.38;;;;;;;14.20;100.00;100326.13;5007137;28;20038;-70
2021/09/04 06:52:32;;;;;;;70.53;34.65;;;;;;;14.25;100.00;100323.09;5006828;28;20330;-73
2021/09/04 06:54:59;;;;;;;54.10;34.05;;;;;;;14.29;100.00;100319.22;5011193;28;20050;-71
2021/09/04 06:57:25;;;;;;;60.28;33.83;;;;;;;14.37;100.00;100324.88;5009815;28;20130;-71
2021/09/04 06:59:52;;;;;;;55.83;34.17;;;;;;;14.38;100.00;100318.50;5013648;28;20042;-71
2021/09/04 07:02:20;;;;;;;63.08;36.42;;;;;;;14.32;100.00;100318.97;5011408;28;20050;-71
2021/09/04 07:04:47;;;;;;;67.95;38.42;;;;;;;14.30;100.00;100320.06;5007557;28;20058;-71
2021/09/04 07:07:14;;;;;;;60.75;36.58;;;;;;;14.35;100.00;100320.56;5026105;28;20030;-71
2021/09/04 07:09:41;;;;;;;63.63;37.40;;;;;;;14.23;100.00;100319.66;5010740;28;20419;-70
2021/09/04 07:12:07;;;;;;;66.38;37.63;;;;;;;14.36;100.00;100330.34;5002010;28;20042;-71
2021/09/04 07:14:34;;;;;;;65.07;38.65;;;;;;;14.31;100.00;100322.63;5004672;28;20049;-70
2021/09/04 07:17:01;;;;;;;66.45;36.40;;;;;;;14.40;100.00;100327.31;5009293;28;20039;-68
2021/09/04 07:19:28;;;;;;;65.03;38.10;;;;;;;14.38;100.00;100328.38;4999150;28;20088;-70
2021/09/04 07:21:55;;;;;;;63.60;36.22;;;;;;;14.40;100.00;100329.16;5011782;28;20514;-69
2021/09/04 07:24:21;;;;;;;64.50;37.38;;;;;;;14.41;100.00;100338.91;5009966;28;20046;-69
2021/09/04 07:26:48;;;;;;;68.65;38.63;;;;;;;14.51;100.00;100339.09;5008669;28;20054;-69
2021/09/04 07:29:15;;;;;;;66.97;38.42;;;;;;;14.51;100.00;100347.97;5000981;28;20378;-71
2021/09/04 07:31:42;;;;;;;64.70;38.08;;;;;;;14.54;100.00;100352.28;5005027;28;20053;-69
2021/09/04 07:34:09;;;;;;;70.85;37.15;;;;;;;14.49;100.00;100349.09;5009219;28;20045;-70
2021/09/04 07:36:36;;;;;;;61.22;36.75;;;;;;;14.48;100.00;100350.03;5012100;28;20095;-71
2021/09/04 07:39:03;;;;;;;66.07;37.25;;;;;;;14.51;100.00;100349.81;5002461;28;20371;-69
2021/09/04 07:41:30;;;;;;;62.65;37.92;;;;;;;14.47;100.00;100351.88;5002691;28;20363;-73
2021/09/04 07:43:57;;;;;;;80.72;37.40;;;;;;;14.36;100.00;100335.72;5002365;28;20034;-71
2021/09/04 07:46:24;;;;;;;67.75;37.78;;;;;;;14.40;100.00;100338.03;4996057;28;20054;-69
2021/09/04 07:48:51;;;;;;;60.22;36.78;;;;;;;14.48;100.00;100350.91;4998866;28;20049;-70
2021/09/04 07:51:18;;;;;;;58.10;36.92;;;;;;;14.53;100.00;100353.25;5006415;28;20045;-74
2021/09/04 07:53:45;;;;;;;67.25;38.88;;;;;;;14.51;100.00;100361.41;5007873;28;20045;-72
2021/09/04 07:56:13;;;;;;;69.28;37.90;;;;;;;14.56;100.00;100346.78;5007584;28;20091;-73
2021/09/04 07:58:40;;;;;;;66.45;39.20;;;;;;;14.57;100.00;100357.44;4995515;28;20343;-70
2021/09/04 08:01:07;;;;;;;65.32;40.28;;;;;;;14.61;100.00;100353.53;5007187;28;20042;-70
2021/09/04 08:03:34;;;;;;;65.78;41.05;;;;;;;14.70;100.00;100351.97;5012007;28;20132;-69
2021/09/04 08:06:01;;;;;;;66.93;40.03;;;;;;;14.76;100.00;100356.09;5006910;28;20046;-68
2021/09/04 08:08:28;;;;;;;71.55;41.65;;;;;;;14.78;100.00;100356.81;5007832;28;20046;-66
2021/09/04 08:10:55;;;;;;;69.40;41.95;;;;;;;14.86;100.00;100358.94;5013992;28;20339;-71
2021/09/04 08:13:22;;;;;;;72.07;43.05;;;;;;;14.71;100.00;100336.72;5014393;28;20498;-73
2021/09/04 08:15:49;;;;;;;71.80;41.42;;;;;;;14.96;100.00;100359.94;5013348;28;20463;-74
2021/09/04 08:18:16;;;;;;;68.65;41.13;;;;;;;15.09;100.00;100359.81;5008626;28;20124;-70
2021/09/04 08:20:43;;;;;;;71.70;40.88;;;;;;;15.10;100.00;100366.94;5009597;28;20066;-71
2021/09/04 08:23:11;;;;;;;71.93;43.13;;;;;;;15.13;100.00;100365.81;5013111;28;20042;-72
2021/09/04 08:25:38;;;;;;;66.47;41.80;;;;;;;15.19;100.00;100370.72;5011637;28;20065;-73
2021/09/04 08:28:07;;;;;;;71.90;44.22;;;;;;;15.26;100.00;100368.44;5014280;28;20086;-72
2021/09/04 08:30:35;;;;;;;71.57;43.65;;;;;;;15.17;100.00;100356.56;5013908;28;20042;-71
2021/09/04 08:33:02;;;;;;;72.93;44.47;;;;;;;15.19;100.00;100365.34;5014168;28;20086;-69
2021/09/04 08:35:30;;;;;;;74.90;46.50;;;;;;;15.12;100.00;100348.00;5011885;28;20041;-70
2021/09/04 08:37:57;;;;;;;77.38;45.92;;;;;;;15.25;100.00;100359.50;5003055;28;20046;-72
2021/09/04 08:40:23;;;;;;;74.15;44.35;;;;;;;15.34;100.00;100357.94;4994132;28;20057;-74
2021/09/04 08:42:51;;;;;;;75.45;45.33;;;;;;;15.36;100.00;100368.56;4998325;28;20053;-74
2021/09/04 08:45:18;;;;;;;79.68;47.22;;;;;;;15.44;100.00;100371.53;5017119;28;20038;-73
2021/09/04 08:47:45;;;;;;;75.95;46.85;;;;;;;15.47;100.00;100369.44;5017818;28;20060;-72
2021/09/04 08:50:12;;;;;;;78.88;47.13;;;;;;;15.42;100.00;100357.34;5010377;28;20060;-73
2021/09/04 08:52:39;;;;;;;85.05;48.08;;;;;;;15.50;100.00;100368.34;5007385;28;20050;-73
2021/09/04 08:55:06;;;;;;;77.32;47.03;;;;;;;15.57;100.00;100363.31;5012788;28;20161;-74
2021/09/04 08:57:33;;;;;;;79.07;46.80;;;;;;;15.60;100.00;100363.09;5017129;28;20046;-71
2021/09/04 09:00:03;;;;;;;78.97;46.78;;;;;;;15.59;100.00;100356.84;5014604;28;20354;-68
2021/09/04 09:02:30;;;;;;;;;;;;;;;15.67;100.00;100355.38;5018641;28;20045;-71
2021/09/04 09:04:59;;;;;;;74.43;45.05;;;;;;;15.66;100.00;100367.13;5015838;28;19973;-73
2021/09/04 09:07:44;;;;;;;78.30;46.97;;;;;;;15.60;100.00;100363.94;5016567;28;20453;-70
2021/09/04 09:10:19;;;;;;;78.22;45.17;;;;;;;15.68;100.00;100370.56;5012618;28;20082;-72
2021/09/04 09:12:47;;;;;;;84.38;48.78;;;;;;;15.78;100.00;100374.22;5016699;28;20049;-69
2021/09/04 09:15:21;;;;;;;90.10;51.22;;;;;;;15.72;100.00;100375.59;5020892;28;20034;-71
2021/09/04 09:18:10;;;;;;;92.43;51.15;;;;;;;15.77;100.00;100379.72;5008883;28;20045;-70
2021/09/04 09:20:39;;;;;;;93.28;52.20;;;;;;;15.82;100.00;100381.09;5001912;28;20050;-73
2021/09/04 09:23:10;;;;;;;99.90;54.08;;;;;;;15.99;100.00;100373.53;5004545;28;20053;-72
2021/09/04 09:25:40;;;;;;;108.95;57.58;;;;;;;15.94;100.00;100375.72;5001340;28;20042;-72
2021/09/04 09:28:12;;;;;;;99.73;55.87;;;;;;;15.92;100.00;100372.31;5009047;28;20052;-71
2021/09/04 09:30:45;;;;;;;94.18;52.38;;;;;;;15.96;100.00;100373.78;5005769;28;20061;-70
2021/09/04 09:33:18;;;;;;;93.32;53.38;;;;;;;15.95;100.00;100377.47;5006627;28;20442;-76
2021/09/04 09:35:49;;;;;;;98.03;56.17;;;;;;;16.00;99.72;100361.75;5005296;28;20050;-75
2021/09/04 09:38:18;;;;;;;;;;;;;;;16.08;99.29;100374.63;5006567;28;20050;-74
2021/09/04 09:40:50;;;;;;;88.05;52.55;;;;;;;16.10;99.61;100380.72;5005018;28;19947;-73
2021/09/04 09:43:23;;;;;;;89.05;52.05;;;;;;;16.18;99.21;100380.94;5013982;28;20447;-77
2021/09/04 09:45:57;;;;;;;88.00;52.05;;;;;;;16.18;98.95;100380.13;5016463;28;20045;-76
2021/09/04 09:48:27;;;;;;;86.78;52.38;;;;;;;16.29;98.93;100372.84;5016090;28;20053;-74
2021/09/04 09:50:56;;;;;;;85.15;52.08;;;;;;;16.30;97.82;100379.13;5015809;28;20045;-73
2021/09/04 09:53:24;;;;;;;81.35;49.63;;;;;;;16.43;97.60;100387.91;5016056;28;20041;-77
2021/09/04 09:55:53;;;;;;;81.43;50.40;;;;;;;16.42;96.88;100386.19;5008897;28;20034;-75
2021/09/04 09:58:22;;;;;;;85.65;51.78;;;;;;;16.45;96.96;100378.84;5013684;28;20385;-73
2021/09/04 10:00:51;;;;;;;84.97;52.08;;;;;;;16.46;96.15;100388.63;5005629;28;20038;-76
2021/09/04 10:03:20;;;;;;;90.40;52.22;;;;;;;16.45;96.36;100368.06;5010852;28;20489;-82
2021/09/04 10:05:47;;;;;;;92.68;52.13;;;;;;;16.46;97.09;100375.16;5008562;28;20042;-75
2021/09/04 10:08:23;;;;;;;90.35;52.88;;;;;;;16.42;96.09;100378.13;5008919;28;20141;-73
2021/09/04 10:10:50;;;;;;;91.88;57.03;;;;;;;16.60;94.70;100376.72;5006309;28;21591;-72
2021/09/04 10:13:17;;;;;;;96.03;56.28;;;;;;;16.65;94.84;100369.94;5021167;28;20042;-73
2021/09/04 10:15:50;;;;;;;93.32;56.88;;;;;;;16.74;94.64;100368.31;5016881;28;20049;-74
2021/09/04 10:18:22;;;;;;;94.30;58.25;;;;;;;16.84;94.35;100360.31;5014772;28;20042;-78
2021/09/04 10:21:11;;;;;;;100.15;58.00;;;;;;;16.99;94.80;100354.59;5014013;28;20084;-75
2021/09/04 10:23:50;;;;;;;97.68;56.50;;;;;;;16.88;92.50;100323.19;4997493;28;20054;-76
2021/09/04 10:26:28;;;;;;;99.63;58.20;;;;;;;17.22;92.56;100361.59;5009605;28;20046;-75
2021/09/04 10:29:02;;;;;;;96.25;58.25;;;;;;;17.20;91.76;100358.19;5015221;28;20053;-70
2021/09/04 10:31:48;;;;;;;93.35;56.35;;;;;;;17.34;91.70;100369.63;5016028;28;20115;-72
2021/09/04 10:34:16;;;;;;;96.55;57.83;;;;;;;17.33;90.24;100367.91;5004806;28;20090;-73
2021/09/04 10:37:15;;;;;;;99.47;56.85;;;;;;;17.37;90.76;100374.75;5013323;28;20118;-71
2021/09/04 10:40:07;;;;;;;98.97;57.10;;;;;;;17.27;89.97;100379.25;5014574;28;20398;-72
2021/09/04 10:42:45;;;;;;;96.90;56.30;;;;;;;17.32;90.73;100361.66;5006406;28;20034;-76
2021/09/04 10:45:17;;;;;;;99.50;59.00;;;;;;;17.20;89.85;100368.09;5014252;28;20103;-69
2021/09/04 10:47:52;;;;;;;95.43;57.03;;;;;;;17.19;90.90;100358.31;5014221;28;20061;-69
2021/09/04 10:50:24;;;;;;;98.47;57.50;;;;;;;17.19;90.69;100364.56;5013946;28;20053;-69
2021/09/04 10:52:56;;;;;;;94.50;56.38;;;;;;;17.41;90.10;100351.91;5014006;28;20050;-69
2021/09/04 10:55:27;;;;;;;91.20;54.20;;;;;;;17.64;89.18;100354.44;5014278;28;20165;-70
2021/09/04 10:57:54;;;;;;;;;;;;;;;17.82;88.29;100343.84;5014546;28;20048;-69
2021/09/04 11:00:24;;;;;;;89.38;51.97;;;;;;;17.81;87.68;100344.00;5014989;28;20234;-69
2021/09/04 11:03:00;;;;;;;86.25;52.20;;;;;;;17.95;88.79;100346.31;5013971;28;20052;-69
2021/09/04 11:05:36;;;;;;;87.38;53.97;;;;;;;18.29;87.41;100339.72;5030972;28;20069;-69
2021/09/04 11:08:10;;;;;;;82.10;51.40;;;;;;;18.47;85.88;100345.34;5016169;28;20492;-69
2021/09/04 11:10:42;;;;;;;85.82;53.67;;;;;;;18.64;84.83;100340.22;5016300;28;20128;-69